Barro Duro, Brazil
Current Conditions -  °F | °C
As of 6:00 PM on Saturday 22 Nov 2014 (Local Time) from SBTE Reporting Station
Few Clouds Few Clouds  
Wind Chill: 35°   Ceiling: Unl
Heat Index: 36°   Visibility: 6mi
Dew Point: 17°   Wind: 5mph
Humidity: 34%   Direction: 130°SE
Pressure: 29.74"   Gusts: NA
Location:  5.82°S, 42.51°W
Report Text: SBTE 222100Z 13004KT 9999 FEW030 35/17 Q1007
Loading
Personal Weather Stations






























Interactive Weather Map New forecast layout! Learn more

10-Day Weather Forecast

Advertisements
Track Severe Weather on mobile